Time;durP1;ratioP1;P1;durP2;ratioP2;P2;SDS_P1;SDS_P2;PMS_P1;PMS_P2;Temp;Humidity;BMP_temperature;BMP_pressure;BME280_temperature;BME280_humidity;BME280_pressure;Samples;Min_cycle;Max_cycle;Signal;HPM_P1;HPM_P2
2022/03/04 00:02:03;;;;;;;23.85;14.68;;;2.50;99.90;;;;;;5060410;28;20059;-57
2022/03/04 00:04:30;;;;;;;27.73;15.30;;;2.50;99.90;;;;;;5058979;28;20525;-57
2022/03/04 00:06:55;;;;;;;24.75;15.15;;;2.40;99.90;;;;;;5039903;28;20462;-57
2022/03/04 00:09:21;;;;;;;23.55;15.07;;;2.40;99.90;;;;;;5040470;28;20030;-57
2022/03/04 00:11:50;;;;;;;23.65;14.73;;;2.50;99.90;;;;;;5040353;28;20459;-57
2022/03/04 00:14:15;;;;;;;25.15;15.43;;;2.40;99.90;;;;;;5040416;28;20116;-57
2022/03/04 00:16:41;;;;;;;22.38;14.38;;;2.40;99.90;;;;;;5024215;28;20413;-58
2022/03/04 00:19:07;;;;;;;23.85;14.32;;;2.40;99.90;;;;;;5060320;28;20041;-57
2022/03/04 00:21:42;;;;;;;21.92;15.23;;;2.30;99.90;;;;;;5060389;28;20171;-57
2022/03/04 00:24:09;;;;;;;20.52;14.35;;;2.30;99.90;;;;;;5059968;28;20037;-57
2022/03/04 00:26:36;;;;;;;24.27;14.20;;;2.30;99.90;;;;;;5041353;28;20475;-57
2022/03/04 00:29:04;;;;;;;21.20;13.43;;;2.20;99.90;;;;;;5022863;28;20072;-57
2022/03/04 00:31:29;;;;;;;24.05;15.32;;;2.20;99.90;;;;;;5040244;28;20064;-57
2022/03/04 00:33:55;;;;;;;22.58;14.05;;;2.20;99.90;;;;;;5040181;28;20046;-58
2022/03/04 00:36:24;;;;;;;22.60;14.13;;;2.20;99.90;;;;;;5037752;28;20088;-58
2022/03/04 00:38:52;;;;;;;23.05;14.50;;;2.10;99.90;;;;;;5060180;28;20051;-57
2022/03/04 00:41:18;;;;;;;22.65;14.10;;;2.10;99.90;;;;;;5059868;28;20069;-57
2022/03/04 00:43:44;;;;;;;20.77;13.27;;;2.10;99.90;;;;;;5060015;28;20115;-56
2022/03/04 00:46:11;;;;;;;22.55;14.00;;;2.10;99.90;;;;;;5044935;28;20095;-57
2022/03/04 00:48:37;;;;;;;22.73;13.85;;;2.10;99.90;;;;;;5040079;28;20045;-57
2022/03/04 00:51:04;;;;;;;23.13;13.50;;;2.00;99.90;;;;;;5039991;28;20041;-57
2022/03/04 00:53:30;;;;;;;21.88;13.48;;;2.00;99.90;;;;;;5022438;28;20060;-58
2022/03/04 00:55:56;;;;;;;20.70;13.27;;;2.00;99.90;;;;;;5051759;28;20072;-57
2022/03/04 00:58:22;;;;;;;21.63;13.13;;;2.00;99.90;;;;;;5060038;28;20037;-57
2022/03/04 01:00:48;;;;;;;20.52;13.13;;;2.00;99.90;;;;;;5057864;28;20445;-57
2022/03/04 01:03:14;;;;;;;20.58;13.55;;;1.90;99.90;;;;;;5056113;28;20040;-56
2022/03/04 01:05:39;;;;;;;22.38;13.75;;;1.90;99.90;;;;;;5045845;28;20118;-57
2022/03/04 01:08:05;;;;;;;20.48;12.57;;;1.90;99.90;;;;;;5036797;28;20368;-58
2022/03/04 01:10:31;;;;;;;18.42;12.27;;;1.80;99.90;;;;;;5036790;28;20029;-57
2022/03/04 01:12:56;;;;;;;20.35;13.00;;;1.70;99.90;;;;;;5036677;28;20466;-57
2022/03/04 01:15:22;;;;;;;19.30;12.23;;;1.80;99.90;;;;;;5043645;28;20036;-57
2022/03/04 01:17:47;;;;;;;19.80;12.40;;;1.70;99.90;;;;;;5056454;28;20041;-57
2022/03/04 01:20:13;;;;;;;19.50;11.68;;;1.70;99.90;;;;;;5038972;28;20041;-56
2022/03/04 01:22:39;;;;;;;18.27;11.55;;;1.60;99.90;;;;;;5056370;28;20409;-57
2022/03/04 01:25:06;;;;;;;18.77;11.63;;;1.70;99.90;;;;;;5050778;28;20038;-58
2022/03/04 01:27:32;;;;;;;18.90;11.82;;;1.70;99.90;;;;;;5036606;28;20163;-57
2022/03/04 01:29:58;;;;;;;22.30;11.95;;;1.60;99.90;;;;;;5036401;28;20034;-57
2022/03/04 01:32:23;;;;;;;18.27;11.40;;;1.60;99.90;;;;;;5036139;28;20088;-57
2022/03/04 01:34:49;;;;;;;18.30;11.52;;;1.50;99.90;;;;;;5038699;28;20041;-57
2022/03/04 01:37:14;;;;;;;16.73;11.32;;;1.40;99.90;;;;;;5055580;28;20041;-57
2022/03/04 01:39:40;;;;;;;16.75;10.68;;;1.40;99.90;;;;;;5056137;28;20048;-57
2022/03/04 01:42:06;;;;;;;17.65;11.15;;;1.40;99.90;;;;;;5056107;28;20041;-58
2022/03/04 01:44:32;;;;;;;15.85;10.48;;;1.40;99.90;;;;;;5037997;28;20045;-57
2022/03/04 01:46:57;;;;;;;18.67;11.15;;;1.40;99.90;;;;;;5015778;28;20446;-56
2022/03/04 01:49:23;;;;;;;16.88;10.75;;;1.40;99.90;;;;;;5016103;28;20050;-57
2022/03/04 01:51:48;;;;;;;17.70;11.05;;;1.40;99.90;;;;;;5016196;28;20152;-57
2022/03/04 01:54:14;;;;;;;18.42;11.40;;;1.40;99.90;;;;;;5016168;28;20037;-57
2022/03/04 01:56:40;;;;;;;18.83;11.70;;;1.30;99.90;;;;;;5051594;28;20045;-56
2022/03/04 01:59:06;;;;;;;19.48;10.93;;;1.30;99.90;;;;;;5055807;28;20041;-57
2022/03/04 02:01:32;;;;;;;18.55;11.20;;;1.30;99.90;;;;;;5054356;28;20045;-57
2022/03/04 02:03:59;;;;;;;19.33;11.20;;;1.30;99.90;;;;;;5037804;28;20056;-57
2022/03/04 02:06:24;;;;;;;18.23;10.27;;;1.30;99.90;;;;;;5021590;28;20061;-57
2022/03/04 02:08:51;;;;;;;18.02;10.85;;;1.30;99.90;;;;;;5035709;28;20049;-57
2022/03/04 02:11:17;;;;;;;17.65;11.35;;;1.20;99.90;;;;;;5035170;28;20056;-58
2022/03/04 02:13:45;;;;;;;17.10;10.55;;;1.20;99.90;;;;;;5035498;28;20037;-57
2022/03/04 02:16:18;;;;;;;17.75;10.63;;;1.20;99.90;;;;;;5048148;28;20056;-57
2022/03/04 02:18:44;;;;;;;18.30;11.45;;;1.10;99.90;;;;;;5055394;28;20048;-57
2022/03/04 02:21:12;;;;;;;18.33;10.55;;;1.10;99.90;;;;;;5055322;28;20037;-57
2022/03/04 02:23:39;;;;;;;18.52;11.57;;;1.10;99.90;;;;;;5054881;28;20362;-57
2022/03/04 02:26:04;;;;;;;18.48;11.07;;;1.10;99.90;;;;;;5042007;28;20035;-57
2022/03/04 02:28:30;;;;;;;18.23;10.93;;;1.10;99.90;;;;;;5035448;28;20045;-57
2022/03/04 02:30:56;;;;;;;18.60;10.55;;;1.10;99.90;;;;;;5034942;28;20429;-58
2022/03/04 02:33:22;;;;;;;17.77;10.32;;;1.10;99.90;;;;;;5035180;28;20442;-59
2022/03/04 02:35:48;;;;;;;17.10;10.35;;;1.20;99.90;;;;;;5044873;28;20040;-59
2022/03/04 02:38:14;;;;;;;16.20;10.55;;;1.10;99.90;;;;;;5054744;28;20508;-57
2022/03/04 02:40:39;;;;;;;17.00;10.75;;;1.20;99.90;;;;;;5054910;28;20080;-58
2022/03/04 02:43:06;;;;;;;18.92;10.70;;;1.20;99.90;;;;;;5054928;28;20090;-57
2022/03/04 02:45:32;;;;;;;16.98;10.80;;;1.10;99.90;;;;;;5046419;28;20052;-57
2022/03/04 02:47:58;;;;;;;17.10;10.95;;;1.00;99.90;;;;;;5034914;28;20094;-58
2022/03/04 02:50:24;;;;;;;17.33;10.30;;;0.90;99.90;;;;;;5034935;28;20041;-58
2022/03/04 02:52:50;;;;;;;19.15;10.88;;;0.90;99.90;;;;;;5034850;28;20043;-58
2022/03/04 02:55:16;;;;;;;19.10;11.20;;;1.00;99.90;;;;;;5039961;28;20112;-58
2022/03/04 02:57:45;;;;;;;16.88;11.05;;;1.00;99.90;;;;;;5054296;28;20033;-58
2022/03/04 03:00:14;;;;;;;18.30;11.65;;;0.90;99.90;;;;;;5054626;28;20040;-58
2022/03/04 03:02:40;;;;;;;19.45;12.30;;;0.90;99.90;;;;;;5054404;28;20045;-58
2022/03/04 03:05:06;;;;;;;17.25;10.60;;;0.80;99.90;;;;;;5049155;28;20045;-58
2022/03/04 03:07:32;;;;;;;21.40;12.43;;;0.70;99.90;;;;;;5034755;28;20382;-57
2022/03/04 03:09:57;;;;;;;19.13;11.63;;;0.70;99.90;;;;;;5016923;28;20477;-58
2022/03/04 03:12:23;;;;;;;19.88;11.88;;;0.70;99.90;;;;;;5034506;28;20045;-57
2022/03/04 03:14:49;;;;;;;20.23;11.65;;;0.70;99.90;;;;;;5035843;28;20089;-58
2022/03/04 03:17:14;;;;;;;20.75;11.95;;;0.70;99.90;;;;;;5053606;28;20051;-58
2022/03/04 03:19:40;;;;;;;20.98;12.07;;;0.60;99.90;;;;;;5054377;28;20053;-57
2022/03/04 03:22:06;;;;;;;19.90;11.57;;;0.60;99.90;;;;;;5054260;28;20048;-57
2022/03/04 03:24:32;;;;;;;19.88;11.82;;;0.70;99.90;;;;;;5053099;28;20485;-57
2022/03/04 03:26:57;;;;;;;20.33;11.40;;;0.60;99.90;;;;;;5034175;28;20033;-57
2022/03/04 03:29:23;;;;;;;20.70;12.90;;;0.60;99.90;;;;;;5034310;28;20093;-58
2022/03/04 03:31:49;;;;;;;19.88;12.15;;;0.60;99.90;;;;;;5033946;28;20059;-58
2022/03/04 03:34:14;;;;;;;20.25;12.32;;;0.50;99.90;;;;;;5034283;28;20064;-58
2022/03/04 03:36:41;;;;;;;22.45;12.40;;;0.50;99.90;;;;;;5032759;28;20044;-58
2022/03/04 03:39:10;;;;;;;20.90;12.32;;;0.50;99.90;;;;;;5053831;28;20094;-57
2022/03/04 03:41:36;;;;;;;21.55;12.73;;;0.60;99.90;;;;;;5053743;28;20090;-57
2022/03/04 03:44:02;;;;;;;23.05;12.77;;;0.60;99.90;;;;;;5053831;28;20033;-57
2022/03/04 03:46:27;;;;;;;22.52;13.48;;;0.40;99.90;;;;;;5020403;28;20041;-57
2022/03/04 03:48:53;;;;;;;22.35;12.70;;;0.40;99.90;;;;;;5033847;28;20041;-58
2022/03/04 03:51:19;;;;;;;24.20;13.35;;;0.30;99.90;;;;;;5033745;28;20458;-58
2022/03/04 03:53:45;;;;;;;21.13;13.63;;;0.30;99.90;;;;;;5033884;28;20401;-61
2022/03/04 03:56:11;;;;;;;24.05;13.88;;;0.40;99.90;;;;;;5046226;28;20120;-58
2022/03/04 03:58:37;;;;;;;24.40;14.77;;;0.40;99.90;;;;;;5053882;28;20049;-57
2022/03/04 04:01:03;;;;;;;25.50;15.07;;;0.30;99.90;;;;;;5053743;28;20105;-58
2022/03/04 04:03:28;;;;;;;25.33;16.02;;;0.20;99.90;;;;;;5054054;28;20037;-58
2022/03/04 04:05:54;;;;;;;25.13;15.27;;;0.10;99.90;;;;;;5042338;28;20065;-57
2022/03/04 04:08:20;;;;;;;25.15;13.48;;;0.10;99.90;;;;;;5033555;28;20040;-57
2022/03/04 04:10:46;;;;;;;24.85;15.18;;;0.10;99.90;;;;;;5033415;28;20107;-57
2022/03/04 04:13:11;;;;;;;23.50;14.35;;;0.10;99.90;;;;;;5033844;28;20041;-57
2022/03/04 04:15:37;;;;;;;25.00;14.65;;;0.10;99.90;;;;;;5041211;28;20037;-57
2022/03/04 04:18:03;;;;;;;24.90;15.50;;;0.00;99.90;;;;;;5053435;28;20037;-57
2022/03/04 04:20:29;;;;;;;24.17;14.45;;;0.00;99.90;;;;;;5053693;28;20055;-58
2022/03/04 04:22:54;;;;;;;24.88;14.88;;;0.00;99.90;;;;;;5053667;28;20033;-58
2022/03/04 04:25:20;;;;;;;25.65;16.70;;;0.00;99.90;;;;;;5047403;28;20439;-58
2022/03/04 04:27:46;;;;;;;26.60;15.88;;;0.00;99.90;;;;;;5033699;28;20065;-57
2022/03/04 04:30:11;;;;;;;27.50;16.48;;;-0.10;99.90;;;;;;5033643;28;20037;-59
2022/03/04 04:32:37;;;;;;;24.92;15.93;;;-0.10;99.90;;;;;;5033202;28;20052;-58
2022/03/04 04:35:04;;;;;;;26.60;16.20;;;-0.10;99.90;;;;;;5037435;28;20049;-58
2022/03/04 04:37:29;;;;;;;26.05;15.25;;;-0.20;99.90;;;;;;5057150;28;20055;-57
2022/03/04 04:39:55;;;;;;;28.92;16.83;;;-0.20;99.90;;;;;;5057024;28;20045;-58
2022/03/04 04:42:21;;;;;;;26.95;16.65;;;-0.30;99.90;;;;;;5057253;28;20037;-58
2022/03/04 04:44:46;;;;;;;26.98;17.17;;;-0.30;99.90;;;;;;5055480;28;20032;-58
2022/03/04 04:47:12;;;;;;;28.67;16.25;;;-0.30;99.90;;;;;;5019726;28;20116;-57
2022/03/04 04:49:38;;;;;;;28.40;17.50;;;-0.30;99.90;;;;;;5019320;28;20041;-57
2022/03/04 04:52:08;;;;;;;30.10;17.10;;;-0.30;99.90;;;;;;5037183;28;20079;-57
2022/03/04 04:54:35;;;;;;;29.08;16.73;;;-0.40;99.90;;;;;;5037107;28;20343;-59
2022/03/04 04:57:01;;;;;;;33.15;18.08;;;-0.30;99.90;;;;;;5055705;28;20102;-59
2022/03/04 04:59:27;;;;;;;29.67;18.33;;;-0.40;99.90;;;;;;5056875;28;20052;-58
2022/03/04 05:01:53;;;;;;;30.20;17.42;;;-0.40;99.90;;;;;;5056377;28;20041;-57
2022/03/04 05:04:18;;;;;;;30.83;17.83;;;-0.40;99.90;;;;;;5056653;28;20037;-57
2022/03/04 05:06:44;;;;;;;30.63;18.45;;;-0.40;99.90;;;;;;5039239;28;20485;-57
2022/03/04 05:09:10;;;;;;;32.33;19.20;;;-0.50;99.90;;;;;;5036760;28;20060;-58
2022/03/04 05:11:36;;;;;;;31.40;19.00;;;-0.50;99.90;;;;;;5036825;28;20065;-57
2022/03/04 05:14:01;;;;;;;31.60;19.30;;;-0.50;99.90;;;;;;5036845;28;20176;-57
2022/03/04 05:16:30;;;;;;;31.33;19.40;;;-0.50;99.90;;;;;;5050342;28;20048;-57
2022/03/04 05:18:55;;;;;;;33.55;20.20;;;-0.60;99.90;;;;;;5056559;28;20037;-58
2022/03/04 05:21:21;;;;;;;33.75;20.88;;;-0.60;99.90;;;;;;5056427;28;20102;-58
2022/03/04 05:23:59;;;;;;;33.78;19.63;;;-0.70;99.90;;;;;;5056412;28;20037;-58
2022/03/04 05:26:26;;;;;;;33.20;19.33;;;-0.70;99.90;;;;;;5041966;28;20041;-58
2022/03/04 05:28:53;;;;;;;34.65;20.10;;;-0.70;99.90;;;;;;5036338;28;20401;-58
2022/03/04 05:31:18;;;;;;;34.60;19.63;;;-0.70;99.90;;;;;;5006095;28;20041;-58
2022/03/04 05:33:44;;;;;;;32.00;20.48;;;-0.60;99.90;;;;;;5015852;28;20045;-57
2022/03/04 05:36:10;;;;;;;33.90;19.88;;;-0.70;99.90;;;;;;5019549;28;20355;-58
2022/03/04 05:38:35;;;;;;;35.72;21.08;;;-0.80;99.90;;;;;;5016221;28;20052;-57
2022/03/04 05:41:01;;;;;;;36.25;20.50;;;-0.70;99.90;;;;;;5016890;28;20121;-57
2022/03/04 05:43:26;;;;;;;37.80;21.73;;;-0.80;99.90;;;;;;5015334;28;20072;-57
2022/03/04 05:45:52;;;;;;;40.03;22.13;;;-0.80;99.90;;;;;;5017843;28;20038;-57
2022/03/04 05:48:18;;;;;;;37.55;22.65;;;-0.90;99.90;;;;;;5014231;28;20034;-58
2022/03/04 05:50:43;;;;;;;37.15;22.65;;;-0.90;99.90;;;;;;5015211;28;20107;-57
2022/03/04 05:53:09;;;;;;;37.58;21.90;;;-0.90;99.90;;;;;;5026894;28;20073;-59
2022/03/04 05:55:35;;;;;;;39.30;24.15;;;-0.90;99.90;;;;;;5017632;28;20034;-58
2022/03/04 05:58:01;;;;;;;37.58;22.33;;;-0.90;99.90;;;;;;5035412;28;20037;-58
2022/03/04 06:00:27;;;;;;;40.72;24.20;;;-0.90;99.90;;;;;;5035556;28;20030;-57
2022/03/04 06:02:53;;;;;;;40.65;25.38;;;-1.00;99.90;;;;;;5035186;28;20053;-60
2022/03/04 06:05:21;;;;;;;41.60;24.77;;;-1.00;99.90;;;;;;5035519;28;20125;-59
2022/03/04 06:07:47;;;;;;;40.67;24.40;;;-1.00;99.90;;;;;;5034799;28;20057;-57
2022/03/04 06:10:13;;;;;;;41.03;23.63;;;-1.00;99.90;;;;;;5017258;28;20038;-57
2022/03/04 06:12:40;;;;;;;43.97;25.63;;;-1.00;99.90;;;;;;5012234;28;20181;-60
2022/03/04 06:15:06;;;;;;;43.58;25.38;;;-1.00;99.90;;;;;;4994211;28;20044;-57
2022/03/04 06:17:31;;;;;;;46.25;27.27;;;-1.00;99.90;;;;;;5028119;28;20045;-58
2022/03/04 06:19:57;;;;;;;43.42;24.35;;;-1.00;99.90;;;;;;5034575;28;20048;-57
2022/03/04 06:22:23;;;;;;;47.22;25.65;;;-1.00;99.90;;;;;;5033666;28;20049;-57
2022/03/04 06:24:50;;;;;;;48.70;25.83;;;-1.00;99.90;;;;;;5034336;28;20033;-57
2022/03/04 06:27:15;;;;;;;46.10;26.05;;;-1.00;99.90;;;;;;5025509;28;20037;-57
2022/03/04 06:29:41;;;;;;;44.38;24.30;;;-1.00;99.90;;;;;;5026466;28;20041;-57
2022/03/04 06:32:07;;;;;;;42.50;24.88;;;-0.80;99.90;;;;;;5034662;28;20095;-57
2022/03/04 06:34:33;;;;;;;43.50;26.70;;;-0.80;99.90;;;;;;5016559;28;20049;-58
2022/03/04 06:36:58;;;;;;;43.70;25.52;;;-0.80;99.90;;;;;;5037160;28;20037;-58
2022/03/04 06:39:24;;;;;;;41.45;24.88;;;-0.80;99.90;;;;;;5034674;28;20051;-57
2022/03/04 06:41:50;;;;;;;44.33;24.25;;;-0.80;99.90;;;;;;5034971;28;20103;-57
2022/03/04 06:44:16;;;;;;;44.42;25.00;;;-0.70;99.90;;;;;;5034752;28;20037;-58
2022/03/04 06:46:41;;;;;;;43.10;25.67;;;-0.70;99.90;;;;;;5049486;28;20040;-57
2022/03/04 06:49:11;;;;;;;48.13;24.77;;;-0.70;99.90;;;;;;5041690;28;20046;-58
2022/03/04 06:51:38;;;;;;;46.40;25.13;;;-0.70;99.90;;;;;;5024928;28;20045;-57
2022/03/04 06:54:04;;;;;;;43.08;25.50;;;-0.70;99.90;;;;;;5017370;28;20120;-58
2022/03/04 06:56:29;;;;;;;46.05;25.55;;;-0.70;99.90;;;;;;5047672;28;20120;-58
2022/03/04 06:58:55;;;;;;;43.08;24.58;;;-0.70;99.90;;;;;;5054101;28;20484;-59
2022/03/04 07:01:22;;;;;;;46.40;25.48;;;-0.70;99.90;;;;;;5054143;28;20048;-58
2022/03/04 07:03:48;;;;;;;46.75;25.95;;;-0.70;99.90;;;;;;5054504;28;20041;-58
2022/03/04 07:06:14;;;;;;;49.28;26.17;;;-0.70;99.90;;;;;;5041794;28;20057;-59
2022/03/04 07:08:39;;;;;;;45.70;25.45;;;-0.70;99.90;;;;;;5034428;28;20120;-58
2022/03/04 07:11:05;;;;;;;44.63;24.63;;;-0.60;99.90;;;;;;5034347;28;20098;-59
2022/03/04 07:13:31;;;;;;;45.95;25.95;;;-0.50;99.90;;;;;;5016953;28;20046;-58
2022/03/04 07:15:57;;;;;;;41.15;24.35;;;-0.60;99.90;;;;;;5042912;28;20043;-59
2022/03/04 07:18:23;;;;;;;44.95;27.15;;;-0.50;99.90;;;;;;5054221;28;20347;-60
2022/03/04 07:20:49;;;;;;;44.55;25.25;;;-0.50;99.90;;;;;;5054117;28;20036;-58
2022/03/04 07:23:16;;;;;;;40.83;24.25;;;-0.40;99.90;;;;;;5053879;28;20036;-58
2022/03/04 07:25:42;;;;;;;44.67;26.83;;;-0.40;99.90;;;;;;5046597;28;20049;-58
2022/03/04 07:28:08;;;;;;;45.83;26.15;;;-0.40;99.90;;;;;;5034223;28;20112;-58
2022/03/04 07:30:34;;;;;;;46.40;25.55;;;-0.30;99.90;;;;;;5034100;28;20099;-59
2022/03/04 07:33:02;;;;;;;44.72;26.05;;;-0.30;99.90;;;;;;5034100;28;20116;-58
2022/03/04 07:35:28;;;;;;;43.28;26.17;;;-0.20;99.90;;;;;;5038250;28;20041;-58
2022/03/04 07:37:53;;;;;;;44.83;26.50;;;-0.20;99.90;;;;;;5053986;28;20113;-58
2022/03/04 07:40:19;;;;;;;44.05;26.35;;;-0.20;99.90;;;;;;5053758;28;20446;-58
2022/03/04 07:42:45;;;;;;;47.38;26.92;;;-0.10;99.90;;;;;;5053794;28;20480;-58
2022/03/04 07:45:12;;;;;;;40.85;23.17;;;-0.10;99.90;;;;;;5050729;28;20048;-58
2022/03/04 07:47:39;;;;;;;42.38;25.90;;;0.00;99.90;;;;;;5033490;28;20455;-58
2022/03/04 07:50:14;;;;;;;44.45;25.70;;;0.10;99.90;;;;;;5016322;28;20038;-58
2022/03/04 07:52:40;;;;;;;42.80;25.95;;;0.00;99.90;;;;;;5033697;28;20434;-58
2022/03/04 07:55:08;;;;;;;45.20;26.10;;;0.10;99.90;;;;;;5017611;28;20081;-58
2022/03/04 07:57:34;;;;;;;46.42;26.92;;;0.10;99.90;;;;;;5053750;28;20049;-59
2022/03/04 08:00:00;;;;;;;44.72;26.60;;;0.00;99.90;;;;;;5053895;28;20091;-58
2022/03/04 08:02:26;;;;;;;49.58;28.45;;;0.00;99.90;;;;;;5053563;28;20072;-58
2022/03/04 08:04:52;;;;;;;42.90;25.88;;;0.00;99.90;;;;;;5052422;28;20388;-58
2022/03/04 08:07:18;;;;;;;44.22;26.88;;;0.00;99.90;;;;;;5034144;28;20577;-58
2022/03/04 08:09:44;;;;;;;45.33;26.52;;;0.10;99.90;;;;;;5034071;28;20451;-59
2022/03/04 08:12:11;;;;;;;47.05;27.80;;;0.10;99.90;;;;;;5037744;28;20053;-58
2022/03/04 08:14:38;;;;;;;51.83;29.20;;;0.10;99.90;;;;;;5037323;28;20048;-58
2022/03/04 08:17:04;;;;;;;49.17;27.38;;;0.00;99.90;;;;;;5037303;28;20355;-59
2022/03/04 08:19:30;;;;;;;47.80;27.70;;;0.20;99.90;;;;;;5057693;28;20371;-58
2022/03/04 08:21:56;;;;;;;46.72;27.33;;;0.20;99.90;;;;;;5057406;28;20037;-59
2022/03/04 08:24:22;;;;;;;46.17;27.42;;;0.30;99.90;;;;;;5057131;28;20040;-58
2022/03/04 08:26:47;;;;;;;44.10;27.42;;;0.40;99.90;;;;;;5041605;28;20449;-58
2022/03/04 08:29:14;;;;;;;44.70;26.45;;;0.40;99.90;;;;;;5037251;28;20072;-57
2022/03/04 08:31:40;;;;;;;45.58;26.90;;;0.60;99.90;;;;;;5020045;28;20146;-58
2022/03/04 08:34:06;;;;;;;46.35;27.75;;;0.60;99.90;;;;;;5037400;28;20422;-58
2022/03/04 08:36:32;;;;;;;43.28;26.35;;;0.60;99.90;;;;;;5050105;28;20060;-58
2022/03/04 08:38:59;;;;;;;48.05;27.90;;;0.60;99.90;;;;;;5057503;28;20437;-58
2022/03/04 08:41:25;;;;;;;44.13;26.30;;;0.50;99.90;;;;;;5039381;28;20466;-58
2022/03/04 08:43:51;;;;;;;43.47;27.70;;;0.60;99.90;;;;;;5057157;28;20073;-58
2022/03/04 08:46:18;;;;;;;42.45;27.15;;;0.60;99.90;;;;;;5045142;28;20055;-58
2022/03/04 08:48:44;;;;;;;43.50;26.15;;;0.70;99.90;;;;;;5036857;28;20481;-58
2022/03/04 08:51:10;;;;;;;45.22;27.95;;;0.80;99.90;;;;;;5019593;28;20049;-58
2022/03/04 08:53:36;;;;;;;43.35;27.80;;;0.90;99.90;;;;;;5036591;28;20042;-58
2022/03/04 08:56:04;;;;;;;43.60;26.13;;;0.80;99.90;;;;;;5045300;28;20450;-58
2022/03/04 08:58:29;;;;;;;44.83;28.27;;;0.80;99.90;;;;;;5022972;28;20055;-58
2022/03/04 09:00:55;;;;;;;42.28;26.85;;;0.90;99.90;;;;;;5056297;28;20036;-58
2022/03/04 09:03:21;;;;;;;45.65;28.38;;;1.00;99.90;;;;;;5039176;28;20041;-59
2022/03/04 09:05:47;;;;;;;46.63;28.02;;;1.00;99.90;;;;;;5048781;28;20514;-58
2022/03/04 09:08:13;;;;;;;47.83;28.70;;;1.10;99.90;;;;;;5036658;28;20060;-58
2022/03/04 09:10:39;;;;;;;45.40;28.50;;;1.10;99.90;;;;;;5036402;28;20467;-58
2022/03/04 09:13:05;;;;;;;44.67;27.52;;;1.10;99.90;;;;;;5036354;28;20044;-59
2022/03/04 09:15:31;;;;;;;46.38;29.63;;;1.10;99.90;;;;;;5040598;28;20029;-58
2022/03/04 09:17:57;;;;;;;47.50;28.05;;;1.10;99.90;;;;;;5055939;28;20088;-58
2022/03/04 09:20:22;;;;;;;43.05;27.23;;;1.10;99.90;;;;;;5038858;28;20130;-58
2022/03/04 09:22:49;;;;;;;46.15;29.13;;;1.20;99.90;;;;;;5054642;28;20462;-58
2022/03/04 09:25:15;;;;;;;46.33;29.27;;;1.10;99.90;;;;;;5053094;28;20041;-58
2022/03/04 09:27:46;;;;;;;46.83;28.98;;;1.20;99.90;;;;;;5036436;28;20496;-58
2022/03/04 09:30:13;;;;;;;43.70;27.80;;;1.30;99.90;;;;;;5036018;28;20112;-59
2022/03/04 09:32:39;;;;;;;43.75;27.02;;;1.40;99.90;;;;;;5018501;28;20057;-58
2022/03/04 09:35:05;;;;;;;43.28;26.27;;;1.50;99.90;;;;;;5036076;28;20045;-58
2022/03/04 09:37:32;;;;;;;40.58;26.65;;;1.60;99.90;;;;;;5055955;28;20073;-58
2022/03/04 09:39:57;;;;;;;41.83;26.52;;;1.80;99.90;;;;;;5038267;28;20382;-59
2022/03/04 09:42:24;;;;;;;42.03;27.00;;;1.80;99.90;;;;;;5055595;28;20044;-59
2022/03/04 09:44:50;;;;;;;46.75;27.98;;;1.60;99.90;;;;;;5055347;28;20044;-58
2022/03/04 09:47:20;;;;;;;42.47;26.45;;;1.60;99.90;;;;;;5036699;28;20047;-58
2022/03/04 09:49:48;;;;;;;43.55;26.77;;;1.70;99.90;;;;;;5036116;28;20087;-58
2022/03/04 09:52:14;;;;;;;43.85;26.85;;;1.70;99.90;;;;;;5035542;28;20103;-58
2022/03/04 09:54:39;;;;;;;45.30;27.60;;;1.80;99.90;;;;;;5035619;28;20045;-59
2022/03/04 09:57:05;;;;;;;41.55;25.75;;;1.90;99.90;;;;;;5052276;28;20063;-58
2022/03/04 09:59:30;;;;;;;42.88;26.35;;;2.10;99.90;;;;;;5055863;28;20041;-58
2022/03/04 10:01:58;;;;;;;38.80;25.08;;;2.20;99.90;;;;;;5055495;28;20037;-58
2022/03/04 10:04:28;;;;;;;42.80;27.58;;;2.30;99.90;;;;;;5054935;28;20045;-59
2022/03/04 10:06:54;;;;;;;38.78;24.73;;;2.40;99.90;;;;;;5039745;28;20037;-58
2022/03/04 10:09:41;;;;;;;43.17;26.27;;;2.50;99.90;;;;;;5035607;28;20183;-58
2022/03/04 10:12:07;;;;;;;39.10;25.98;;;2.70;99.90;;;;;;5035602;28;20037;-58
2022/03/04 10:14:33;;;;;;;39.97;25.33;;;2.80;99.90;;;;;;5018112;28;20056;-59
2022/03/04 10:16:59;;;;;;;39.80;25.92;;;3.00;99.90;;;;;;5051566;28;20045;-59
2022/03/04 10:19:25;;;;;;;41.22;26.35;;;3.00;99.90;;;;;;5037508;28;20036;-59
2022/03/04 10:21:51;;;;;;;39.70;25.38;;;3.10;99.90;;;;;;5037788;28;20044;-59
2022/03/04 10:24:22;;;;;;;41.58;27.35;;;3.10;99.90;;;;;;5036994;28;20041;-59
2022/03/04 10:26:59;;;;;;;38.00;26.67;;;3.30;99.90;;;;;;5040176;28;20037;-58
2022/03/04 10:29:26;;;;;;;41.83;26.48;;;3.50;99.90;;;;;;5035232;28;20044;-59
2022/03/04 10:32:19;;;;;;;40.30;26.08;;;3.60;99.90;;;;;;5034982;28;20087;-58
2022/03/04 10:34:53;;;;;;;42.38;26.38;;;3.80;99.90;;;;;;5034412;28;20055;-58
2022/03/04 10:37:37;;;;;;;38.67;25.00;;;3.80;99.90;;;;;;5053599;28;20033;-58
2022/03/04 10:40:19;;;;;;;36.22;23.25;;;3.90;99.90;;;;;;5054947;28;20045;-59
2022/03/04 10:42:55;;;;;;;37.08;23.83;;;4.00;99.90;;;;;;5054777;28;20045;-58
2022/03/04 10:45:47;;;;;;;38.00;24.63;;;4.00;99.90;;;;;;5051555;28;20037;-59
2022/03/04 10:48:18;;;;;;;36.88;23.20;;;4.00;99.90;;;;;;5030339;28;20045;-59
2022/03/04 10:50:46;;;;;;;35.67;23.13;;;4.10;99.90;;;;;;5034799;28;20034;-58
2022/03/04 10:53:17;;;;;;;37.97;24.13;;;4.20;99.90;;;;;;5034784;28;20056;-58
2022/03/04 10:55:44;;;;;;;37.78;23.60;;;4.30;99.90;;;;;;5039577;28;20032;-59
2022/03/04 10:58:28;;;;;;;37.40;24.77;;;4.50;99.90;;;;;;5054612;28;20405;-60
2022/03/04 11:00:59;;;;;;;37.78;24.33;;;4.50;99.90;;;;;;5054465;28;20144;-59
2022/03/04 11:03:28;;;;;;;35.42;24.02;;;4.60;99.90;;;;;;5036677;28;20040;-59
2022/03/04 11:05:58;;;;;;;42.25;25.38;;;4.70;99.90;;;;;;5029305;28;20096;-59
2022/03/04 11:08:24;;;;;;;37.63;22.75;;;4.80;99.90;;;;;;5034623;28;20064;-59
2022/03/04 11:10:51;;;;;;;35.40;22.83;;;4.90;99.90;;;;;;5034417;28;20042;-58
2022/03/04 11:13:17;;;;;;;40.28;22.92;;;4.90;99.90;;;;;;5034464;28;20356;-59
2022/03/04 11:15:45;;;;;;;39.85;24.10;;;4.70;99.90;;;;;;5038629;28;20488;-58
2022/03/04 11:18:13;;;;;;;37.42;23.13;;;4.70;99.90;;;;;;5054144;28;20072;-59
2022/03/04 11:20:42;;;;;;;38.10;23.33;;;4.80;99.90;;;;;;5054274;28;20051;-59
2022/03/04 11:23:09;;;;;;;41.60;23.48;;;4.80;99.90;;;;;;5053830;28;20497;-58
2022/03/04 11:25:40;;;;;;;37.03;23.63;;;4.80;99.90;;;;;;5049517;28;20091;-58
2022/03/04 11:28:14;;;;;;;37.00;23.05;;;4.80;99.90;;;;;;5034192;28;20513;-58
2022/03/04 11:30:44;;;;;;;36.35;22.17;;;5.00;99.90;;;;;;5034245;28;20041;-58
2022/03/04 11:33:19;;;;;;;36.28;22.13;;;5.00;99.90;;;;;;5017029;28;20045;-58
2022/03/04 11:35:52;;;;;;;33.45;21.13;;;5.00;99.90;;;;;;5038926;28;20051;-58
2022/03/04 11:38:44;;;;;;;36.70;23.08;;;5.00;99.90;;;;;;5054121;28;20051;-59
2022/03/04 11:41:11;;;;;;;37.58;23.42;;;5.20;99.90;;;;;;5053441;28;20044;-58
2022/03/04 11:43:54;;;;;;;37.85;23.63;;;5.30;99.90;;;;;;5053847;28;20095;-60
2022/03/04 11:46:25;;;;;;;36.80;23.15;;;5.30;99.90;;;;;;5042765;28;20041;-59
2022/03/04 11:49:22;;;;;;;39.95;23.45;;;5.40;99.90;;;;;;5034015;28;20029;-60
2022/03/04 11:52:09;;;;;;;38.83;22.52;;;5.40;99.90;;;;;;5033978;28;20053;-58
2022/03/04 11:54:40;;;;;;;39.60;23.40;;;5.50;99.90;;;;;;5033516;28;20043;-59
2022/03/04 11:57:28;;;;;;;40.72;23.55;;;5.40;99.90;;;;;;5050057;28;20052;-59
2022/03/04 11:59:53;;;;;;;38.40;23.48;;;5.30;99.90;;;;;;5053877;28;20076;-59
2022/03/04 12:02:42;;;;;;;37.35;22.77;;;5.30;99.90;;;;;;5053700;28;20265;-59
2022/03/04 12:05:21;;;;;;;37.13;22.27;;;5.30;99.90;;;;;;5036841;28;20140;-58
2022/03/04 12:07:50;;;;;;;37.35;23.95;;;5.40;99.90;;;;;;5014207;28;20049;-59
2022/03/04 12:10:27;;;;;;;39.55;23.40;;;5.30;99.90;;;;;;5014063;28;20046;-60
2022/03/04 12:12:58;;;;;;;38.65;23.77;;;5.30;99.90;;;;;;5014046;28;20060;-60
2022/03/04 12:15:24;;;;;;;34.80;20.40;;;5.30;99.90;;;;;;5018718;28;20044;-59
2022/03/04 12:18:03;;;;;;;33.80;21.23;;;5.40;99.90;;;;;;5053519;28;20419;-59
2022/03/04 12:20:34;;;;;;;35.63;20.40;;;5.60;99.90;;;;;;5053825;28;20339;-59
2022/03/04 12:23:14;;;;;;;34.10;20.70;;;5.70;99.90;;;;;;5053644;28;20056;-59
2022/03/04 12:25:52;;;;;;;34.10;21.58;;;5.80;99.90;;;;;;5048393;28;20555;-61
2022/03/04 12:28:23;;;;;;;33.97;20.45;;;5.90;99.90;;;;;;5033645;28;20340;-59
2022/03/04 12:31:16;;;;;;;30.45;20.27;;;5.90;99.90;;;;;;5033700;28;20095;-59
2022/03/04 12:33:44;;;;;;;32.65;20.33;;;6.00;99.90;;;;;;5029411;28;20052;-59
2022/03/04 12:36:15;;;;;;;33.20;20.92;;;6.00;99.90;;;;;;5041082;28;20470;-59